Terminal Aerodrome Forecast
Issued by NWS

Home | Current Version | Previous Version | Text Only | Print | Product List | Glossary Off
Versions: 1 2 3 4 5 6 7 8 9 10 11 12 13 14 15

000
FTUS43 KMPX 280520
TAFRWF
TAF
KRWF 280520Z 2806/2906 VRB03KT P6SM SKC
     FM281000 16004KT 6SM BR VCSH SCT030 BKN070
     FM281400 17010KT P6SM SCT025 SCT100=

USA.gov is the U.S. government's official web portal to all federal, state and local government web resources and services.